ENSB/LYR METAR and TAF weather

Enter ICAO airport designator
Station Type Date Time Source
ENSB METAR 2019/12/12 11:50 UTC NOAA

ENSB 121150Z 14025KT 9999 DRSN FEW080 BKN140 M07/M13 Q0999 TEMPO 12025G35KT RMK WIND 1400FT 10031KT


Station Type Date Time Source
ENSB Decoded METAR 2019/12/12 11:50 UTC NOAA

Svalbard Lufthavn, Norway (ENSB) 78-15N 015-28E 29M
Dec 12, 2019 - 06:50 AM EST / 2019.12.12 1150 UTC
Wind: from the SE (140 degrees) at 29 MPH (25 KT):0
Visibility: greater than 7 mile(s):0
Sky conditions: mostly cloudy
Weather: low drifting snow
Temperature: 19 F (-7 C)
Windchill: 0 F (-18 C):1
Dew Point: 8 F (-13 C)
Relative Humidity: 62%
Pressure (altimeter): 29.50 in. Hg (0999 hPa)
ob: ENSB 121150Z 14025KT 9999 DRSN FEW080 BKN140 M07/M13 Q0999 TEMPO 12025G35KT RMK WIND 1400FT 10031KT
cycle: 12

Station Type Date Time Source
ENSB TAF 2019/12/12 12:58 UTC NOAA

TAF ENSB 121100Z 1212/1312 12025KT 9999 SCT040
TEMPO 1212/1307 12030G40KT DRSN PROB30
TEMPO 1215/1309 4000 BLSN VV014

Example: see airport list